AFA8423 YBBN-YBTL
Flight info
| Callsign | AFA8423 |
|---|---|
| Flight time | 1h 45m |
| Altitude | 30000 |
| Route | BIXAD Q67 RUNLA Q493 EMSUP/N0410F200 V308 POROB |
| Aircraft | B738/M-SDE2E3FGHIRWXY/LB1 |
Departure
| Time | 2026-05-07 02:42 |
|---|---|
| Airport | Brisbane International Airport (YBBN) |
Arrival
| Time | 2026-05-07 04:27 |
|---|---|
| Airport | Townsville Airport / RAAF Base Townsville (YBTL) |
| Time | Latitude | Longitude | Altitude | Speed | Heading |
|---|---|---|---|---|---|
| 2026-05-07 02:16 | -27.40138 | 153.11304 | 22 ft | 0 kts | 308° |
| 2026-05-07 02:30 | -27.40139 | 153.11305 | 22 ft | 2 kts | 309° |
| 2026-05-07 02:30 | -27.40151 | 153.11316 | 22 ft | 2 kts | 330° |
| 2026-05-07 02:31 | -27.40164 | 153.11324 | 22 ft | 2 kts | 346° |
| 2026-05-07 02:31 | -27.40179 | 153.11325 | 22 ft | 2 kts | 4° |
| 2026-05-07 02:31 | -27.40194 | 153.11322 | 22 ft | 2 kts | 21° |
| 2026-05-07 02:31 | -27.40207 | 153.11314 | 22 ft | 2 kts | 38° |
| 2026-05-07 02:32 | -27.40219 | 153.11304 | 22 ft | 2 kts | 34° |
| 2026-05-07 02:32 | -27.40222 | 153.11302 | 22 ft | 0 kts | 33° |
| 2026-05-07 02:35 | -27.40202 | 153.11324 | 22 ft | 10 kts | 56° |
| 2026-05-07 02:35 | -27.40200 | 153.11444 | 22 ft | 21 kts | 118° |
| 2026-05-07 02:35 | -27.40247 | 153.11594 | 22 ft | 19 kts | 61° |
| 2026-05-07 02:35 | -27.40135 | 153.11676 | 22 ft | 19 kts | 27° |
| 2026-05-07 02:36 | -27.40013 | 153.11743 | 22 ft | 20 kts | 26° |
| 2026-05-07 02:36 | -27.39883 | 153.11815 | 22 ft | 21 kts | 25° |
| 2026-05-07 02:36 | -27.39748 | 153.11891 | 22 ft | 22 kts | 27° |
| 2026-05-07 02:36 | -27.39606 | 153.11977 | 22 ft | 23 kts | 32° |
| 2026-05-07 02:37 | -27.39458 | 153.12064 | 22 ft | 24 kts | 26° |
| 2026-05-07 02:37 | -27.39300 | 153.12151 | 22 ft | 25 kts | 27° |
| 2026-05-07 02:37 | -27.39134 | 153.12245 | 21 ft | 27 kts | 27° |
| 2026-05-07 02:37 | -27.38967 | 153.12346 | 22 ft | 27 kts | 28° |
| 2026-05-07 02:38 | -27.38792 | 153.12444 | 21 ft | 28 kts | 25° |
| 2026-05-07 02:38 | -27.38614 | 153.12541 | 22 ft | 28 kts | 27° |
| 2026-05-07 02:38 | -27.38434 | 153.12645 | 22 ft | 29 kts | 29° |
| 2026-05-07 02:38 | -27.38249 | 153.12753 | 21 ft | 30 kts | 27° |
| 2026-05-07 02:39 | -27.38058 | 153.12865 | 21 ft | 30 kts | 27° |
| 2026-05-07 02:39 | -27.37868 | 153.12972 | 21 ft | 30 kts | 25° |
| 2026-05-07 02:39 | -27.37703 | 153.13086 | 21 ft | 19 kts | 4° |
| 2026-05-07 02:39 | -27.37593 | 153.13124 | 21 ft | 18 kts | 23° |
| 2026-05-07 02:40 | -27.37443 | 153.13211 | 21 ft | 26 kts | 28° |
| 2026-05-07 02:40 | -27.37339 | 153.13274 | 21 ft | 11 kts | 40° |
| 2026-05-07 02:40 | -27.37321 | 153.13322 | 21 ft | 4 kts | 90° |
| 2026-05-07 02:40 | -27.37347 | 153.13394 | 21 ft | 17 kts | 136° |
| 2026-05-07 02:41 | -27.37461 | 153.13437 | 21 ft | 16 kts | 188° |
| 2026-05-07 02:41 | -27.37523 | 153.13403 | 21 ft | 17 kts | 205° |
| 2026-05-07 02:41 | -27.37893 | 153.13184 | 22 ft | 101 kts | 210° |
| 2026-05-07 02:41 | -27.38759 | 153.12694 | 23 ft | 171 kts | 208° |
| 2026-05-07 02:42 | -27.39927 | 153.12044 | 425 ft | 203 kts | 208° |
| 2026-05-07 02:42 | -27.41247 | 153.11296 | 1141 ft | 220 kts | 212° |
| 2026-05-07 02:42 | -27.42504 | 153.10371 | 2142 ft | 216 kts | 220° |
| 2026-05-07 02:42 | -27.43644 | 153.09236 | 2622 ft | 235 kts | 225° |
| 2026-05-07 02:43 | -27.45069 | 153.08238 | 3304 ft | 248 kts | 201° |
| 2026-05-07 02:43 | -27.46736 | 153.07701 | 4058 ft | 255 kts | 199° |
| 2026-05-07 02:43 | -27.48368 | 153.06944 | 4859 ft | 255 kts | 219° |
| 2026-05-07 02:43 | -27.49450 | 153.05432 | 5658 ft | 252 kts | 252° |
| 2026-05-07 02:44 | -27.49692 | 153.03500 | 6456 ft | 253 kts | 275° |
| 2026-05-07 02:44 | -27.49346 | 153.01566 | 7278 ft | 253 kts | 284° |
| 2026-05-07 02:44 | -27.48933 | 152.99640 | 8004 ft | 258 kts | 283° |
| 2026-05-07 02:44 | -27.48570 | 152.97675 | 8845 ft | 258 kts | 282° |
| 2026-05-07 02:45 | -27.48226 | 152.95703 | 9629 ft | 260 kts | 282° |
| 2026-05-07 02:45 | -27.47871 | 152.93707 | 10367 ft | 262 kts | 284° |
| 2026-05-07 02:45 | -27.47167 | 152.91844 | 11101 ft | 264 kts | 308° |
| 2026-05-07 02:45 | -27.45744 | 152.90561 | 11793 ft | 270 kts | 332° |
| 2026-05-07 02:46 | -27.43927 | 152.89998 | 12511 ft | 276 kts | 350° |
| 2026-05-07 02:46 | -27.41987 | 152.89944 | 13144 ft | 285 kts | 3° |
| 2026-05-07 02:46 | -27.40064 | 152.90709 | 13690 ft | 303 kts | 28° |
| 2026-05-07 02:46 | -27.38500 | 152.92432 | 13980 ft | 331 kts | 53° |
| 2026-05-07 02:47 | -27.37577 | 152.94890 | 14324 ft | 354 kts | 71° |
| 2026-05-07 02:47 | -27.36865 | 152.97584 | 14564 ft | 367 kts | 63° |
| 2026-05-07 02:47 | -27.35622 | 153.00159 | 14877 ft | 376 kts | 52° |
| 2026-05-07 02:47 | -27.34067 | 153.02586 | 15157 ft | 389 kts | 47° |
| 2026-05-07 02:48 | -27.32368 | 153.05034 | 15404 ft | 404 kts | 47° |
| 2026-05-07 02:48 | -27.30580 | 153.07535 | 15686 ft | 416 kts | 44° |
| 2026-05-07 02:48 | -27.28594 | 153.09949 | 16149 ft | 421 kts | 40° |
| 2026-05-07 02:48 | -27.26478 | 153.12234 | 16728 ft | 423 kts | 37° |
| 2026-05-07 02:49 | -27.24277 | 153.14398 | 17280 ft | 423 kts | 32° |
| 2026-05-07 02:49 | -27.21862 | 153.16325 | 17876 ft | 419 kts | 24° |
| 2026-05-07 02:49 | -27.19293 | 153.17835 | 18370 ft | 418 kts | 16° |
| 2026-05-07 02:49 | -27.16579 | 153.19043 | 18966 ft | 416 kts | 12° |
| 2026-05-07 02:50 | -27.13828 | 153.20081 | 19480 ft | 417 kts | 10° |
| 2026-05-07 02:50 | -27.11048 | 153.21048 | 20034 ft | 419 kts | 9° |
| 2026-05-07 02:50 | -27.08235 | 153.22002 | 20462 ft | 424 kts | 8° |
| 2026-05-07 02:50 | -27.05432 | 153.22862 | 21082 ft | 420 kts | 5° |
| 2026-05-07 02:51 | -27.02546 | 153.23482 | 21493 ft | 420 kts | 360° |
| 2026-05-07 02:51 | -26.99644 | 153.23836 | 22071 ft | 415 kts | 356° |
| 2026-05-07 02:51 | -26.96761 | 153.24023 | 22623 ft | 413 kts | 354° |
| 2026-05-07 02:51 | -26.93878 | 153.24123 | 23041 ft | 417 kts | 353° |
| 2026-05-07 02:52 | -26.90972 | 153.24184 | 23531 ft | 419 kts | 353° |
| 2026-05-07 02:52 | -26.88035 | 153.24237 | 23997 ft | 421 kts | 353° |
| 2026-05-07 02:52 | -26.85068 | 153.24286 | 24351 ft | 427 kts | 353° |
| 2026-05-07 02:52 | -26.82091 | 153.24338 | 24899 ft | 428 kts | 353° |
| 2026-05-07 02:53 | -26.79127 | 153.24397 | 25346 ft | 431 kts | 353° |
| 2026-05-07 02:53 | -26.76104 | 153.24460 | 25671 ft | 436 kts | 353° |
| 2026-05-07 02:53 | -26.73076 | 153.24480 | 26165 ft | 435 kts | 351° |
| 2026-05-07 02:53 | -26.70018 | 153.24318 | 26511 ft | 434 kts | 346° |
| 2026-05-07 02:54 | -26.67024 | 153.23796 | 26769 ft | 433 kts | 341° |
| 2026-05-07 02:54 | -26.64126 | 153.22998 | 27153 ft | 432 kts | 338° |
| 2026-05-07 02:54 | -26.61212 | 153.22052 | 27670 ft | 431 kts | 336° |
| 2026-05-07 02:54 | -26.58377 | 153.21074 | 28244 ft | 428 kts | 335° |
| 2026-05-07 02:55 | -26.55545 | 153.20073 | 28818 ft | 425 kts | 335° |
| 2026-05-07 02:55 | -26.52751 | 153.19078 | 29392 ft | 422 kts | 334° |
| 2026-05-07 02:55 | -26.49952 | 153.18085 | 29890 ft | 419 kts | 334° |
| 2026-05-07 02:55 | -26.47183 | 153.17105 | 29976 ft | 418 kts | 334° |
| 2026-05-07 02:56 | -26.41679 | 153.15179 | 29989 ft | 410 kts | 334° |
| 2026-05-07 02:56 | -26.36147 | 153.13257 | 29981 ft | 417 kts | 334° |
| 2026-05-07 02:57 | -26.30646 | 153.11244 | 29975 ft | 411 kts | 330° |
| 2026-05-07 02:57 | -26.25597 | 153.08417 | 29972 ft | 400 kts | 321° |
| 2026-05-07 02:58 | -26.21046 | 153.04919 | 29968 ft | 399 kts | 318° |
| 2026-05-07 02:58 | -26.16796 | 153.01413 | 29960 ft | 399 kts | 317° |
| 2026-05-07 02:59 | -26.12385 | 152.97672 | 29989 ft | 400 kts | 317° |
| 2026-05-07 02:59 | -26.08130 | 152.94214 | 29983 ft | 399 kts | 317° |
| 2026-05-07 03:00 | -26.03571 | 152.90610 | 29984 ft | 399 kts | 318° |
| 2026-05-07 03:00 | -25.99077 | 152.87027 | 29980 ft | 400 kts | 318° |
| 2026-05-07 03:01 | -25.94556 | 152.83400 | 29980 ft | 399 kts | 317° |
| 2026-05-07 03:01 | -25.90066 | 152.79802 | 29985 ft | 399 kts | 318° |
| 2026-05-07 03:02 | -25.85761 | 152.76352 | 29988 ft | 401 kts | 318° |
| 2026-05-07 03:02 | -25.81196 | 152.72702 | 29990 ft | 399 kts | 317° |
| 2026-05-07 03:03 | -25.76645 | 152.69076 | 30002 ft | 400 kts | 318° |
| 2026-05-07 03:03 | -25.72119 | 152.65468 | 30006 ft | 399 kts | 318° |
| 2026-05-07 03:04 | -25.67603 | 152.61864 | 30007 ft | 398 kts | 317° |
| 2026-05-07 03:04 | -25.63118 | 152.58293 | 30008 ft | 398 kts | 318° |
| 2026-05-07 03:05 | -25.58585 | 152.54686 | 30008 ft | 399 kts | 318° |
| 2026-05-07 03:05 | -25.54089 | 152.51108 | 30013 ft | 397 kts | 318° |
| 2026-05-07 03:06 | -25.49585 | 152.47533 | 30018 ft | 397 kts | 318° |
| 2026-05-07 03:06 | -25.45095 | 152.43971 | 30015 ft | 397 kts | 318° |
| 2026-05-07 03:07 | -25.40605 | 152.40416 | 30013 ft | 395 kts | 318° |
| 2026-05-07 03:07 | -25.36116 | 152.36864 | 30005 ft | 395 kts | 319° |
| 2026-05-07 03:08 | -25.31641 | 152.33324 | 30003 ft | 398 kts | 319° |
| 2026-05-07 03:08 | -25.27135 | 152.29761 | 30005 ft | 395 kts | 319° |
| 2026-05-07 03:09 | -25.22627 | 152.26199 | 30006 ft | 396 kts | 319° |
| 2026-05-07 03:09 | -25.18160 | 152.22676 | 30006 ft | 394 kts | 319° |
| 2026-05-07 03:10 | -25.13670 | 152.19133 | 30002 ft | 394 kts | 319° |
| 2026-05-07 03:10 | -25.09209 | 152.15628 | 30001 ft | 394 kts | 319° |
| 2026-05-07 03:11 | -25.04734 | 152.12108 | 29999 ft | 394 kts | 319° |
| 2026-05-07 03:11 | -25.00254 | 152.08588 | 29999 ft | 394 kts | 319° |
| 2026-05-07 03:12 | -24.95804 | 152.05103 | 29997 ft | 393 kts | 319° |
| 2026-05-07 03:12 | -24.91309 | 152.01585 | 29999 ft | 395 kts | 319° |
| 2026-05-07 03:13 | -24.86842 | 151.98093 | 30001 ft | 394 kts | 319° |
| 2026-05-07 03:13 | -24.82336 | 151.94575 | 30005 ft | 395 kts | 319° |
| 2026-05-07 03:14 | -24.77845 | 151.91072 | 30010 ft | 395 kts | 319° |
| 2026-05-07 03:15 | -24.71067 | 151.85790 | 30011 ft | 396 kts | 319° |
| 2026-05-07 03:15 | -24.66576 | 151.82288 | 30009 ft | 395 kts | 319° |
| 2026-05-07 03:16 | -24.62077 | 151.78784 | 30006 ft | 396 kts | 319° |
| 2026-05-07 03:16 | -24.57576 | 151.75288 | 30012 ft | 395 kts | 319° |
| 2026-05-07 03:17 | -24.53079 | 151.71788 | 30012 ft | 396 kts | 319° |
| 2026-05-07 03:17 | -24.48560 | 151.68278 | 30012 ft | 398 kts | 319° |
| 2026-05-07 03:18 | -24.44019 | 151.64775 | 30010 ft | 397 kts | 319° |
| 2026-05-07 03:18 | -24.39494 | 151.61275 | 30001 ft | 400 kts | 319° |
| 2026-05-07 03:19 | -24.34948 | 151.57753 | 30004 ft | 398 kts | 319° |
| 2026-05-07 03:19 | -24.30432 | 151.54265 | 30011 ft | 398 kts | 319° |
| 2026-05-07 03:20 | -24.25863 | 151.50725 | 30012 ft | 400 kts | 319° |
| 2026-05-07 03:20 | -24.21307 | 151.47200 | 30006 ft | 401 kts | 319° |
| 2026-05-07 03:21 | -24.16769 | 151.43690 | 30003 ft | 401 kts | 319° |
| 2026-05-07 03:21 | -24.12216 | 151.40175 | 30000 ft | 400 kts | 319° |
| 2026-05-07 03:22 | -24.07653 | 151.36661 | 29991 ft | 401 kts | 319° |
| 2026-05-07 03:22 | -24.03089 | 151.33164 | 29983 ft | 402 kts | 319° |
| 2026-05-07 03:23 | -23.98475 | 151.29628 | 29983 ft | 403 kts | 319° |
| 2026-05-07 03:23 | -23.93890 | 151.26112 | 29983 ft | 401 kts | 319° |
| 2026-05-07 03:24 | -23.89323 | 151.22610 | 29986 ft | 404 kts | 319° |
| 2026-05-07 03:24 | -23.84655 | 151.19115 | 29988 ft | 405 kts | 322° |
| 2026-05-07 03:25 | -23.79766 | 151.15944 | 29988 ft | 408 kts | 324° |
| 2026-05-07 03:25 | -23.74792 | 151.12842 | 29986 ft | 408 kts | 324° |
| 2026-05-07 03:26 | -23.69797 | 151.09688 | 29987 ft | 409 kts | 323° |
| 2026-05-07 03:26 | -23.64856 | 151.06543 | 29982 ft | 408 kts | 323° |
| 2026-05-07 03:27 | -23.59925 | 151.03391 | 29979 ft | 411 kts | 324° |
| 2026-05-07 03:27 | -23.54968 | 151.00220 | 29981 ft | 412 kts | 323° |
| 2026-05-07 03:28 | -23.50055 | 150.97080 | 29976 ft | 411 kts | 323° |
| 2026-05-07 03:28 | -23.45088 | 150.93904 | 29976 ft | 410 kts | 323° |
| 2026-05-07 03:29 | -23.40144 | 150.90745 | 29979 ft | 412 kts | 323° |
| 2026-05-07 03:29 | -23.35199 | 150.87587 | 29982 ft | 412 kts | 323° |
| 2026-05-07 03:30 | -23.30230 | 150.84419 | 29982 ft | 413 kts | 323° |
| 2026-05-07 03:30 | -23.25270 | 150.81262 | 29983 ft | 412 kts | 323° |
| 2026-05-07 03:31 | -23.20293 | 150.78099 | 29982 ft | 413 kts | 323° |
| 2026-05-07 03:31 | -23.15252 | 150.74893 | 29984 ft | 413 kts | 324° |
| 2026-05-07 03:32 | -23.10229 | 150.71696 | 29988 ft | 415 kts | 324° |
| 2026-05-07 03:32 | -23.05215 | 150.68509 | 29988 ft | 415 kts | 324° |
| 2026-05-07 03:33 | -23.00209 | 150.65338 | 29994 ft | 417 kts | 324° |
| 2026-05-07 03:33 | -22.95199 | 150.62170 | 29999 ft | 414 kts | 324° |
| 2026-05-07 03:34 | -22.90214 | 150.59016 | 30003 ft | 416 kts | 324° |
| 2026-05-07 03:34 | -22.85210 | 150.55852 | 30004 ft | 415 kts | 324° |
| 2026-05-07 03:35 | -22.80230 | 150.52707 | 30006 ft | 415 kts | 324° |
| 2026-05-07 03:35 | -22.75232 | 150.49551 | 30005 ft | 416 kts | 323° |
| 2026-05-07 03:36 | -22.70215 | 150.46384 | 30003 ft | 415 kts | 323° |
| 2026-05-07 03:36 | -22.65236 | 150.43249 | 30001 ft | 415 kts | 324° |
| 2026-05-07 03:37 | -22.60234 | 150.40099 | 30000 ft | 414 kts | 324° |
| 2026-05-07 03:37 | -22.55222 | 150.36946 | 29999 ft | 415 kts | 324° |
| 2026-05-07 03:38 | -22.50217 | 150.33798 | 30000 ft | 416 kts | 324° |
| 2026-05-07 03:38 | -22.45209 | 150.30652 | 30000 ft | 415 kts | 324° |
| 2026-05-07 03:39 | -22.40206 | 150.27515 | 29999 ft | 415 kts | 324° |
| 2026-05-07 03:39 | -22.35198 | 150.24373 | 29997 ft | 415 kts | 324° |
| 2026-05-07 03:40 | -22.30200 | 150.21242 | 29992 ft | 416 kts | 324° |
| 2026-05-07 03:40 | -22.25382 | 150.17792 | 29989 ft | 411 kts | 317° |
| 2026-05-07 03:41 | -22.20976 | 150.13867 | 29988 ft | 409 kts | 314° |
| 2026-05-07 03:41 | -22.16704 | 150.09865 | 29987 ft | 409 kts | 314° |
| 2026-05-07 03:42 | -22.12395 | 150.05833 | 29988 ft | 408 kts | 314° |
| 2026-05-07 03:42 | -22.08111 | 150.01842 | 29987 ft | 410 kts | 314° |
| 2026-05-07 03:43 | -22.03749 | 149.97797 | 29986 ft | 408 kts | 314° |
| 2026-05-07 03:43 | -21.99423 | 149.93796 | 29988 ft | 409 kts | 314° |
| 2026-05-07 03:44 | -21.95071 | 149.89778 | 29988 ft | 411 kts | 315° |
| 2026-05-07 03:44 | -21.90735 | 149.85785 | 29981 ft | 410 kts | 314° |
| 2026-05-07 03:45 | -21.86391 | 149.81786 | 29986 ft | 411 kts | 315° |
| 2026-05-07 03:45 | -21.82043 | 149.77786 | 29979 ft | 411 kts | 315° |
| 2026-05-07 03:46 | -21.77682 | 149.73782 | 29977 ft | 409 kts | 315° |
| 2026-05-07 03:46 | -21.73347 | 149.69804 | 29971 ft | 411 kts | 315° |
| 2026-05-07 03:47 | -21.68960 | 149.65776 | 29967 ft | 411 kts | 315° |
| 2026-05-07 03:47 | -21.64606 | 149.61781 | 29969 ft | 410 kts | 315° |
| 2026-05-07 03:48 | -21.60284 | 149.57822 | 29972 ft | 411 kts | 315° |
| 2026-05-07 03:48 | -21.55921 | 149.53842 | 29960 ft | 410 kts | 315° |
| 2026-05-07 03:49 | -21.51539 | 149.49857 | 29970 ft | 410 kts | 315° |
| 2026-05-07 03:49 | -21.47184 | 149.45888 | 29963 ft | 410 kts | 315° |
| 2026-05-07 03:50 | -21.42805 | 149.41901 | 29968 ft | 412 kts | 315° |
| 2026-05-07 03:50 | -21.38430 | 149.37926 | 29963 ft | 410 kts | 315° |
| 2026-05-07 03:51 | -21.34061 | 149.33955 | 29964 ft | 412 kts | 315° |
| 2026-05-07 03:51 | -21.29694 | 149.29990 | 29969 ft | 410 kts | 315° |
| 2026-05-07 03:52 | -21.25346 | 149.26048 | 29959 ft | 410 kts | 315° |
| 2026-05-07 03:52 | -21.20967 | 149.22082 | 29968 ft | 410 kts | 315° |
| 2026-05-07 03:53 | -21.16783 | 149.17976 | 29964 ft | 407 kts | 309° |
| 2026-05-07 03:53 | -21.13060 | 149.13414 | 29962 ft | 406 kts | 307° |
| 2026-05-07 03:54 | -21.09475 | 149.08740 | 29973 ft | 405 kts | 306° |
| 2026-05-07 03:54 | -21.05892 | 149.04071 | 29974 ft | 404 kts | 306° |
| 2026-05-07 03:55 | -21.02282 | 148.99397 | 29970 ft | 405 kts | 306° |
| 2026-05-07 03:55 | -20.98676 | 148.94745 | 29967 ft | 406 kts | 306° |
| 2026-05-07 03:56 | -20.95048 | 148.90074 | 29975 ft | 407 kts | 306° |
| 2026-05-07 03:56 | -20.91424 | 148.85417 | 29974 ft | 406 kts | 307° |
| 2026-05-07 03:57 | -20.87802 | 148.80769 | 29971 ft | 406 kts | 307° |
| 2026-05-07 03:57 | -20.84200 | 148.76147 | 29975 ft | 406 kts | 307° |
| 2026-05-07 03:58 | -20.80582 | 148.71507 | 29973 ft | 406 kts | 306° |
| 2026-05-07 03:58 | -20.76957 | 148.66864 | 29978 ft | 406 kts | 307° |
| 2026-05-07 03:59 | -20.73328 | 148.62225 | 29980 ft | 406 kts | 307° |
| 2026-05-07 03:59 | -20.69716 | 148.57606 | 29982 ft | 404 kts | 307° |
| 2026-05-07 04:00 | -20.66075 | 148.52949 | 29982 ft | 406 kts | 307° |
| 2026-05-07 04:00 | -20.62451 | 148.48323 | 29993 ft | 405 kts | 307° |
| 2026-05-07 04:01 | -20.58805 | 148.43669 | 29991 ft | 406 kts | 307° |
| 2026-05-07 04:01 | -20.55160 | 148.39038 | 29973 ft | 406 kts | 307° |
| 2026-05-07 04:02 | -20.51515 | 148.34425 | 29982 ft | 406 kts | 307° |
| 2026-05-07 04:02 | -20.47877 | 148.29819 | 29987 ft | 406 kts | 307° |
| 2026-05-07 04:03 | -20.44231 | 148.25211 | 29976 ft | 406 kts | 307° |
| 2026-05-07 04:03 | -20.40581 | 148.20590 | 29990 ft | 406 kts | 307° |
| 2026-05-07 04:04 | -20.36954 | 148.16003 | 29987 ft | 405 kts | 307° |
| 2026-05-07 04:04 | -20.33303 | 148.11395 | 29982 ft | 406 kts | 307° |
| 2026-05-07 04:05 | -20.29674 | 148.06816 | 29978 ft | 406 kts | 307° |
| 2026-05-07 04:05 | -20.26028 | 148.02223 | 29975 ft | 407 kts | 307° |
| 2026-05-07 04:06 | -20.22372 | 147.97613 | 29976 ft | 406 kts | 307° |
| 2026-05-07 04:06 | -20.18726 | 147.93021 | 29973 ft | 407 kts | 308° |
| 2026-05-07 04:07 | -20.15082 | 147.88441 | 29538 ft | 401 kts | 307° |
| 2026-05-07 04:07 | -20.13280 | 147.86189 | 28708 ft | 405 kts | 308° |
| 2026-05-07 04:07 | -20.11432 | 147.83885 | 27914 ft | 407 kts | 308° |
| 2026-05-07 04:07 | -20.09621 | 147.81633 | 27406 ft | 402 kts | 308° |
| 2026-05-07 04:08 | -20.07804 | 147.79376 | 26914 ft | 397 kts | 308° |
| 2026-05-07 04:08 | -20.06030 | 147.77170 | 26377 ft | 394 kts | 308° |
| 2026-05-07 04:08 | -20.04243 | 147.74951 | 25878 ft | 389 kts | 309° |
| 2026-05-07 04:08 | -20.02492 | 147.72778 | 25380 ft | 385 kts | 309° |
| 2026-05-07 04:09 | -20.00781 | 147.70650 | 24879 ft | 382 kts | 309° |
| 2026-05-07 04:09 | -19.99058 | 147.68509 | 24392 ft | 378 kts | 309° |
| 2026-05-07 04:09 | -19.97353 | 147.66391 | 23905 ft | 374 kts | 309° |
| 2026-05-07 04:09 | -19.95674 | 147.64304 | 23420 ft | 371 kts | 309° |
| 2026-05-07 04:10 | -19.94008 | 147.62233 | 22937 ft | 368 kts | 309° |
| 2026-05-07 04:10 | -19.92362 | 147.60187 | 22468 ft | 364 kts | 309° |
| 2026-05-07 04:10 | -19.90712 | 147.58138 | 21991 ft | 361 kts | 309° |
| 2026-05-07 04:10 | -19.89097 | 147.56133 | 21529 ft | 358 kts | 309° |
| 2026-05-07 04:11 | -19.87477 | 147.54125 | 21055 ft | 356 kts | 310° |
| 2026-05-07 04:11 | -19.85870 | 147.52129 | 20581 ft | 353 kts | 310° |
| 2026-05-07 04:11 | -19.84278 | 147.50154 | 20122 ft | 350 kts | 310° |
| 2026-05-07 04:11 | -19.82707 | 147.48207 | 19662 ft | 347 kts | 310° |
| 2026-05-07 04:12 | -19.81141 | 147.46271 | 19207 ft | 344 kts | 310° |
| 2026-05-07 04:12 | -19.79594 | 147.44356 | 18759 ft | 341 kts | 310° |
| 2026-05-07 04:12 | -19.78060 | 147.42456 | 18322 ft | 337 kts | 310° |
| 2026-05-07 04:12 | -19.76540 | 147.40573 | 17894 ft | 334 kts | 310° |
| 2026-05-07 04:13 | -19.75028 | 147.38698 | 17436 ft | 331 kts | 310° |
| 2026-05-07 04:13 | -19.73532 | 147.36847 | 17012 ft | 327 kts | 310° |
| 2026-05-07 04:13 | -19.72056 | 147.35022 | 16577 ft | 325 kts | 310° |
| 2026-05-07 04:13 | -19.70602 | 147.33223 | 16154 ft | 323 kts | 310° |
| 2026-05-07 04:14 | -19.69134 | 147.31409 | 15726 ft | 320 kts | 310° |
| 2026-05-07 04:14 | -19.67704 | 147.29646 | 15315 ft | 318 kts | 310° |
| 2026-05-07 04:14 | -19.66265 | 147.27873 | 14896 ft | 315 kts | 310° |
| 2026-05-07 04:14 | -19.64836 | 147.26106 | 14474 ft | 313 kts | 309° |
| 2026-05-07 04:15 | -19.63557 | 147.24240 | 14069 ft | 310 kts | 300° |
| 2026-05-07 04:15 | -19.62863 | 147.22134 | 13888 ft | 303 kts | 279° |
| 2026-05-07 04:15 | -19.62744 | 147.19936 | 13877 ft | 293 kts | 274° |
| 2026-05-07 04:15 | -19.62700 | 147.17793 | 13816 ft | 292 kts | 274° |
| 2026-05-07 04:16 | -19.62636 | 147.15633 | 13607 ft | 294 kts | 275° |
| 2026-05-07 04:16 | -19.62553 | 147.13472 | 13244 ft | 294 kts | 275° |
| 2026-05-07 04:16 | -19.62461 | 147.11311 | 12859 ft | 293 kts | 275° |
| 2026-05-07 04:16 | -19.62368 | 147.09177 | 12492 ft | 292 kts | 275° |
| 2026-05-07 04:17 | -19.62275 | 147.07022 | 12116 ft | 291 kts | 274° |
| 2026-05-07 04:17 | -19.62184 | 147.04881 | 11742 ft | 290 kts | 274° |
| 2026-05-07 04:17 | -19.62094 | 147.02747 | 11392 ft | 289 kts | 274° |
| 2026-05-07 04:17 | -19.62006 | 147.00645 | 11048 ft | 289 kts | 274° |
| 2026-05-07 04:18 | -19.61914 | 146.98491 | 10678 ft | 289 kts | 274° |
| 2026-05-07 04:18 | -19.61823 | 146.96382 | 10336 ft | 290 kts | 274° |
| 2026-05-07 04:18 | -19.61752 | 146.94217 | 9966 ft | 289 kts | 272° |
| 2026-05-07 04:18 | -19.61733 | 146.92111 | 9593 ft | 289 kts | 270° |
| 2026-05-07 04:19 | -19.61734 | 146.89961 | 9238 ft | 287 kts | 270° |
| 2026-05-07 04:19 | -19.61734 | 146.87868 | 8887 ft | 287 kts | 270° |
| 2026-05-07 04:19 | -19.61727 | 146.85733 | 8531 ft | 286 kts | 270° |
| 2026-05-07 04:19 | -19.61716 | 146.83640 | 8175 ft | 286 kts | 270° |
| 2026-05-07 04:20 | -19.61701 | 146.81522 | 7812 ft | 285 kts | 270° |
| 2026-05-07 04:20 | -19.61668 | 146.79437 | 7458 ft | 284 kts | 273° |
| 2026-05-07 04:20 | -19.61335 | 146.77371 | 7075 ft | 285 kts | 290° |
| 2026-05-07 04:21 | -19.58638 | 146.74495 | 6404 ft | 280 kts | 331° |
| 2026-05-07 04:21 | -19.56932 | 146.73498 | 6038 ft | 280 kts | 332° |
| 2026-05-07 04:21 | -19.55209 | 146.72482 | 5680 ft | 280 kts | 331° |
| 2026-05-07 04:21 | -19.53526 | 146.71448 | 5323 ft | 281 kts | 330° |
| 2026-05-07 04:22 | -19.51833 | 146.70373 | 4988 ft | 280 kts | 329° |
| 2026-05-07 04:22 | -19.50188 | 146.69318 | 4780 ft | 274 kts | 329° |
| 2026-05-07 04:22 | -19.48567 | 146.68282 | 4511 ft | 271 kts | 331° |
| 2026-05-07 04:22 | -19.46843 | 146.67433 | 4206 ft | 268 kts | 346° |
| 2026-05-07 04:23 | -19.45040 | 146.67351 | 3987 ft | 255 kts | 15° |
| 2026-05-07 04:23 | -19.43445 | 146.68034 | 3904 ft | 239 kts | 28° |
| 2026-05-07 04:23 | -19.41991 | 146.68790 | 3808 ft | 228 kts | 28° |
| 2026-05-07 04:23 | -19.40528 | 146.69504 | 3329 ft | 235 kts | 27° |
| 2026-05-07 04:24 | -19.39026 | 146.70212 | 2871 ft | 237 kts | 26° |
| 2026-05-07 04:24 | -19.37504 | 146.70929 | 2504 ft | 234 kts | 26° |
| 2026-05-07 04:24 | -19.36042 | 146.71606 | 2391 ft | 221 kts | 26° |
| 2026-05-07 04:24 | -19.34724 | 146.72208 | 2378 ft | 190 kts | 26° |
| 2026-05-07 04:25 | -19.33585 | 146.72739 | 2399 ft | 170 kts | 27° |
| 2026-05-07 04:25 | -19.32484 | 146.73265 | 2409 ft | 171 kts | 27° |
| 2026-05-07 04:25 | -19.31424 | 146.73772 | 2321 ft | 161 kts | 27° |
| 2026-05-07 04:25 | -19.30384 | 146.74219 | 1858 ft | 168 kts | 23° |
| 2026-05-07 04:26 | -19.29255 | 146.74608 | 1297 ft | 172 kts | 19° |
| 2026-05-07 04:26 | -19.28178 | 146.75072 | 1114 ft | 160 kts | 31° |
| 2026-05-07 04:26 | -19.27222 | 146.75693 | 663 ft | 164 kts | 36° |
| 2026-05-07 04:26 | -19.26219 | 146.76288 | 197 ft | 162 kts | 26° |
| 2026-05-07 04:27 | -19.25269 | 146.76753 | 26 ft | 131 kts | 32° |
| 2026-05-07 04:27 | -19.24641 | 146.77051 | 26 ft | 65 kts | 24° |
| 2026-05-07 04:27 | -19.24393 | 146.77182 | 26 ft | 8 kts | 36° |
| 2026-05-07 04:27 | -19.24391 | 146.77184 | 27 ft | 0 kts | 41° |
| 2026-05-07 04:29 | -19.24389 | 146.77185 | 26 ft | 0 kts | 42° |
| 2026-05-07 04:29 | -19.24385 | 146.77188 | 26 ft | 0 kts | 45° |
| 2026-05-07 04:29 | -19.24382 | 146.77191 | 27 ft | 0 kts | 48° |
| 2026-05-07 04:30 | -19.24380 | 146.77194 | 26 ft | 5 kts | 49° |
| 2026-05-07 04:30 | -19.24383 | 146.77319 | 27 ft | 22 kts | 139° |
| 2026-05-07 04:30 | -19.24548 | 146.77333 | 27 ft | 29 kts | 211° |
| 2026-05-07 04:30 | -19.24752 | 146.77220 | 27 ft | 36 kts | 206° |
| 2026-05-07 04:31 | -19.24998 | 146.77083 | 26 ft | 39 kts | 213° |
| 2026-05-07 04:31 | -19.25186 | 146.76985 | 26 ft | 22 kts | 197° |
| 2026-05-07 04:31 | -19.25223 | 146.76962 | 26 ft | 3 kts | 236° |
| 2026-05-07 04:31 | -19.25241 | 146.76939 | 26 ft | 5 kts | 223° |
| 2026-05-07 04:32 | -19.25291 | 146.76912 | 26 ft | 11 kts | 203° |
| 2026-05-07 04:32 | -19.25374 | 146.76891 | 27 ft | 11 kts | 169° |
| 2026-05-07 04:32 | -19.25418 | 146.76936 | 28 ft | 7 kts | 91° |
| 2026-05-07 04:32 | -19.25396 | 146.76978 | 27 ft | 6 kts | 58° |
| 2026-05-07 04:33 | -19.25375 | 146.77016 | 27 ft | 5 kts | 62° |
| 2026-05-07 04:33 | -19.25368 | 146.77048 | 27 ft | 3 kts | 96° |
| 2026-05-07 04:33 | -19.25377 | 146.77063 | 27 ft | 1 kts | 143° |